sensor_id;sensor_type;location;lat;lon;timestamp;P1;durP1;ratioP1;P2;durP2;ratioP2
5630;SDS011;2837;50.990;7.124;2023-07-31T05:01:31;150.43;;;9.27;;
5630;SDS011;2837;50.990;7.124;2023-07-31T05:03:57;150.00;;;10.10;;
5630;SDS011;2837;50.990;7.124;2023-07-31T05:06:23;151.77;;;9.97;;
5630;SDS011;2837;50.990;7.124;2023-07-31T05:08:49;150.20;;;9.57;;
5630;SDS011;2837;50.990;7.124;2023-07-31T05:11:15;151.40;;;9.60;;
5630;SDS011;2837;50.990;7.124;2023-07-31T05:13:41;148.30;;;9.57;;
5630;SDS011;2837;50.990;7.124;2023-07-31T05:16:07;152.53;;;9.63;;
5630;SDS011;2837;50.990;7.124;2023-07-31T05:18:33;148.70;;;9.40;;
5630;SDS011;2837;50.990;7.124;2023-07-31T05:20:59;151.00;;;10.30;;
5630;SDS011;2837;50.990;7.124;2023-07-31T05:23:25;149.47;;;9.63;;
5630;SDS011;2837;50.990;7.124;2023-07-31T05:25:50;149.80;;;9.40;;
5630;SDS011;2837;50.990;7.124;2023-07-31T05:28:16;147.67;;;9.60;;
5630;SDS011;2837;50.990;7.124;2023-07-31T05:30:42;155.50;;;10.57;;
5630;SDS011;2837;50.990;7.124;2023-07-31T05:33:08;150.07;;;9.87;;
5630;SDS011;2837;50.990;7.124;2023-07-31T05:35:34;151.10;;;11.00;;
5630;SDS011;2837;50.990;7.124;2023-07-31T05:38:00;149.10;;;8.70;;
5630;SDS011;2837;50.990;7.124;2023-07-31T05:40:26;151.17;;;9.97;;
5630;SDS011;2837;50.990;7.124;2023-07-31T05:42:52;151.00;;;10.10;;
5630;SDS011;2837;50.990;7.124;2023-07-31T05:45:18;148.93;;;10.23;;
5630;SDS011;2837;50.990;7.124;2023-07-31T05:47:44;151.27;;;9.70;;
5630;SDS011;2837;50.990;7.124;2023-07-31T05:50:09;148.50;;;9.50;;
5630;SDS011;2837;50.990;7.124;2023-07-31T05:52:35;148.13;;;9.50;;
5630;SDS011;2837;50.990;7.124;2023-07-31T05:55:01;148.47;;;9.67;;
5630;SDS011;2837;50.990;7.124;2023-07-31T05:57:28;149.40;;;9.60;;
5630;SDS011;2837;50.990;7.124;2023-07-31T05:59:53;150.20;;;9.97;;
5630;SDS011;2837;50.990;7.124;2023-07-31T06:02:19;152.77;;;9.53;;
5630;SDS011;2837;50.990;7.124;2023-07-31T06:04:45;149.07;;;9.67;;
5630;SDS011;2837;50.990;7.124;2023-07-31T06:07:11;147.97;;;9.90;;
5630;SDS011;2837;50.990;7.124;2023-07-31T06:09:37;148.47;;;9.60;;
5630;SDS011;2837;50.990;7.124;2023-07-31T06:12:03;149.73;;;9.50;;
5630;SDS011;2837;50.990;7.124;2023-07-31T06:14:30;148.80;;;8.90;;
5630;SDS011;2837;50.990;7.124;2023-07-31T06:16:55;149.87;;;9.90;;
5630;SDS011;2837;50.990;7.124;2023-07-31T06:19:21;147.70;;;9.70;;
5630;SDS011;2837;50.990;7.124;2023-07-31T06:21:47;149.97;;;9.80;;
5630;SDS011;2837;50.990;7.124;2023-07-31T06:24:13;149.87;;;9.80;;
5630;SDS011;2837;50.990;7.124;2023-07-31T06:26:43;150.20;;;9.97;;
5630;SDS011;2837;50.990;7.124;2023-07-31T06:29:09;147.97;;;9.37;;
5630;SDS011;2837;50.990;7.124;2023-07-31T06:31:35;150.63;;;10.33;;
5630;SDS011;2837;50.990;7.124;2023-07-31T06:34:01;147.77;;;9.80;;
5630;SDS011;2837;50.990;7.124;2023-07-31T06:36:27;149.43;;;9.73;;
5630;SDS011;2837;50.990;7.124;2023-07-31T06:38:53;147.83;;;9.43;;
5630;SDS011;2837;50.990;7.124;2023-07-31T06:41:19;148.33;;;9.37;;
5630;SDS011;2837;50.990;7.124;2023-07-31T06:43:45;149.47;;;10.20;;
5630;SDS011;2837;50.990;7.124;2023-07-31T06:46:11;149.37;;;10.63;;
5630;SDS011;2837;50.990;7.124;2023-07-31T06:48:37;149.07;;;9.33;;
5630;SDS011;2837;50.990;7.124;2023-07-31T06:51:03;151.70;;;10.30;;
5630;SDS011;2837;50.990;7.124;2023-07-31T06:53:29;148.27;;;9.93;;
5630;SDS011;2837;50.990;7.124;2023-07-31T06:55:56;150.20;;;9.63;;
5630;SDS011;2837;50.990;7.124;2023-07-31T06:58:21;149.30;;;10.10;;
5630;SDS011;2837;50.990;7.124;2023-07-31T07:00:47;148.67;;;10.30;;
5630;SDS011;2837;50.990;7.124;2023-07-31T07:03:19;149.47;;;9.70;;
5630;SDS011;2837;50.990;7.124;2023-07-31T07:05:45;148.37;;;10.03;;
5630;SDS011;2837;50.990;7.124;2023-07-31T07:08:11;148.73;;;10.47;;
5630;SDS011;2837;50.990;7.124;2023-07-31T07:10:37;148.73;;;10.50;;
5630;SDS011;2837;50.990;7.124;2023-07-31T07:13:03;148.93;;;9.90;;
5630;SDS011;2837;50.990;7.124;2023-07-31T07:15:29;148.83;;;10.00;;
5630;SDS011;2837;50.990;7.124;2023-07-31T07:17:55;150.57;;;10.40;;
5630;SDS011;2837;50.990;7.124;2023-07-31T07:20:21;149.50;;;10.53;;
5630;SDS011;2837;50.990;7.124;2023-07-31T07:22:47;148.03;;;10.20;;
5630;SDS011;2837;50.990;7.124;2023-07-31T07:25:13;149.17;;;9.73;;
5630;SDS011;2837;50.990;7.124;2023-07-31T07:27:39;149.07;;;9.57;;
5630;SDS011;2837;50.990;7.124;2023-07-31T07:30:05;150.27;;;10.57;;
5630;SDS011;2837;50.990;7.124;2023-07-31T07:32:31;152.50;;;10.57;;
5630;SDS011;2837;50.990;7.124;2023-07-31T07:34:57;150.60;;;9.87;;
5630;SDS011;2837;50.990;7.124;2023-07-31T07:37:23;150.90;;;9.73;;
5630;SDS011;2837;50.990;7.124;2023-07-31T07:39:49;149.87;;;10.13;;
5630;SDS011;2837;50.990;7.124;2023-07-31T07:42:15;151.50;;;9.47;;
5630;SDS011;2837;50.990;7.124;2023-07-31T07:44:41;152.30;;;11.23;;
5630;SDS011;2837;50.990;7.124;2023-07-31T07:47:07;150.20;;;10.00;;
5630;SDS011;2837;50.990;7.124;2023-07-31T07:49:33;150.47;;;10.77;;
5630;SDS011;2837;50.990;7.124;2023-07-31T07:52:00;150.03;;;10.53;;
5630;SDS011;2837;50.990;7.124;2023-07-31T07:54:26;150.30;;;10.10;;
5630;SDS011;2837;50.990;7.124;2023-07-31T07:56:52;149.93;;;10.00;;
5630;SDS011;2837;50.990;7.124;2023-07-31T07:59:18;149.37;;;10.30;;
5630;SDS011;2837;50.990;7.124;2023-07-31T08:01:44;149.40;;;9.50;;
5630;SDS011;2837;50.990;7.124;2023-07-31T08:04:10;150.77;;;10.30;;
5630;SDS011;2837;50.990;7.124;2023-07-31T08:06:35;149.20;;;9.70;;
5630;SDS011;2837;50.990;7.124;2023-07-31T08:09:02;149.33;;;9.50;;
5630;SDS011;2837;50.990;7.124;2023-07-31T08:11:34;149.60;;;9.23;;
5630;SDS011;2837;50.990;7.124;2023-07-31T08:14:00;148.17;;;10.13;;
5630;SDS011;2837;50.990;7.124;2023-07-31T08:16:26;150.17;;;9.50;;
5630;SDS011;2837;50.990;7.124;2023-07-31T08:18:52;149.83;;;10.10;;
5630;SDS011;2837;50.990;7.124;2023-07-31T08:21:18;152.37;;;9.60;;
5630;SDS011;2837;50.990;7.124;2023-07-31T08:23:44;147.53;;;9.23;;
5630;SDS011;2837;50.990;7.124;2023-07-31T08:26:17;151.10;;;10.50;;
5630;SDS011;2837;50.990;7.124;2023-07-31T08:28:43;149.70;;;10.67;;
5630;SDS011;2837;50.990;7.124;2023-07-31T08:31:09;152.13;;;10.63;;
5630;SDS011;2837;50.990;7.124;2023-07-31T08:33:35;150.13;;;10.67;;
5630;SDS011;2837;50.990;7.124;2023-07-31T08:36:01;151.20;;;10.33;;
5630;SDS011;2837;50.990;7.124;2023-07-31T08:38:27;149.10;;;10.33;;
5630;SDS011;2837;50.990;7.124;2023-07-31T08:40:54;150.77;;;10.13;;
5630;SDS011;2837;50.990;7.124;2023-07-31T08:43:20;148.80;;;9.30;;
5630;SDS011;2837;50.990;7.124;2023-07-31T08:45:50;150.17;;;10.27;;
5630;SDS011;2837;50.990;7.124;2023-07-31T08:48:16;150.57;;;10.23;;
5630;SDS011;2837;50.990;7.124;2023-07-31T08:50:42;148.00;;;9.77;;
5630;SDS011;2837;50.990;7.124;2023-07-31T08:53:08;150.60;;;9.80;;
5630;SDS011;2837;50.990;7.124;2023-07-31T08:55:34;150.37;;;10.00;;
5630;SDS011;2837;50.990;7.124;2023-07-31T08:58:01;152.97;;;10.10;;
5630;SDS011;2837;50.990;7.124;2023-07-31T09:00:29;148.33;;;9.70;;
5630;SDS011;2837;50.990;7.124;2023-07-31T09:02:57;150.40;;;10.57;;
5630;SDS011;2837;50.990;7.124;2023-07-31T09:05:24;149.67;;;10.10;;
5630;SDS011;2837;50.990;7.124;2023-07-31T09:07:51;149.43;;;9.70;;
5630;SDS011;2837;50.990;7.124;2023-07-31T09:10:18;152.10;;;10.47;;
5630;SDS011;2837;50.990;7.124;2023-07-31T09:12:43;149.40;;;10.03;;
5630;SDS011;2837;50.990;7.124;2023-07-31T09:15:10;149.33;;;9.80;;
5630;SDS011;2837;50.990;7.124;2023-07-31T09:17:37;151.50;;;9.17;;
5630;SDS011;2837;50.990;7.124;2023-07-31T09:22:41;149.47;;;9.83;;
5630;SDS011;2837;50.990;7.124;2023-07-31T09:25:21;148.10;;;9.67;;
5630;SDS011;2837;50.990;7.124;2023-07-31T09:27:51;149.63;;;9.80;;
5630;SDS011;2837;50.990;7.124;2023-07-31T09:30:17;150.30;;;9.87;;
5630;SDS011;2837;50.990;7.124;2023-07-31T09:32:44;147.97;;;9.37;;
5630;SDS011;2837;50.990;7.124;2023-07-31T09:35:29;150.27;;;10.17;;
5630;SDS011;2837;50.990;7.124;2023-07-31T09:37:59;148.80;;;10.10;;
5630;SDS011;2837;50.990;7.124;2023-07-31T09:40:30;149.70;;;9.67;;
5630;SDS011;2837;50.990;7.124;2023-07-31T09:42:57;149.90;;;9.57;;
5630;SDS011;2837;50.990;7.124;2023-07-31T09:45:23;150.20;;;9.43;;
5630;SDS011;2837;50.990;7.124;2023-07-31T09:47:49;150.20;;;9.10;;
5630;SDS011;2837;50.990;7.124;2023-07-31T09:50:15;148.63;;;9.53;;
5630;SDS011;2837;50.990;7.124;2023-07-31T09:52:42;148.27;;;9.07;;
5630;SDS011;2837;50.990;7.124;2023-07-31T09:55:08;147.13;;;8.50;;
5630;SDS011;2837;50.990;7.124;2023-07-31T09:57:35;149.10;;;9.23;;
5630;SDS011;2837;50.990;7.124;2023-07-31T10:00:02;148.83;;;9.37;;
5630;SDS011;2837;50.990;7.124;2023-07-31T10:02:28;149.27;;;8.77;;
5630;SDS011;2837;50.990;7.124;2023-07-31T10:04:56;149.17;;;9.83;;
5630;SDS011;2837;50.990;7.124;2023-07-31T10:07:23;146.53;;;9.00;;
5630;SDS011;2837;50.990;7.124;2023-07-31T10:09:51;148.77;;;9.40;;
5630;SDS011;2837;50.990;7.124;2023-07-31T10:12:18;150.47;;;9.87;;
5630;SDS011;2837;50.990;7.124;2023-07-31T10:14:45;148.27;;;9.87;;
5630;SDS011;2837;50.990;7.124;2023-07-31T10:17:10;148.07;;;10.00;;
5630;SDS011;2837;50.990;7.124;2023-07-31T10:19:37;159.70;;;9.87;;
5630;SDS011;2837;50.990;7.124;2023-07-31T10:22:03;148.53;;;9.77;;
5630;SDS011;2837;50.990;7.124;2023-07-31T10:24:30;148.70;;;9.33;;
5630;SDS011;2837;50.990;7.124;2023-07-31T10:26:57;150.70;;;10.10;;
5630;SDS011;2837;50.990;7.124;2023-07-31T10:29:25;150.20;;;9.80;;
5630;SDS011;2837;50.990;7.124;2023-07-31T10:31:51;150.77;;;9.40;;
5630;SDS011;2837;50.990;7.124;2023-07-31T10:34:17;150.63;;;9.07;;
5630;SDS011;2837;50.990;7.124;2023-07-31T10:36:44;148.90;;;9.43;;
5630;SDS011;2837;50.990;7.124;2023-07-31T10:42:12;149.17;;;9.73;;
5630;SDS011;2837;50.990;7.124;2023-07-31T10:44:38;149.80;;;10.20;;
5630;SDS011;2837;50.990;7.124;2023-07-31T10:47:08;148.70;;;9.03;;
5630;SDS011;2837;50.990;7.124;2023-07-31T10:49:34;148.80;;;9.70;;
5630;SDS011;2837;50.990;7.124;2023-07-31T10:52:02;150.70;;;9.03;;
5630;SDS011;2837;50.990;7.124;2023-07-31T10:54:29;148.97;;;9.13;;
5630;SDS011;2837;50.990;7.124;2023-07-31T10:56:55;148.07;;;9.50;;
5630;SDS011;2837;50.990;7.124;2023-07-31T10:59:26;148.87;;;9.40;;
5630;SDS011;2837;50.990;7.124;2023-07-31T11:01:54;157.80;;;9.43;;
5630;SDS011;2837;50.990;7.124;2023-07-31T11:04:27;149.00;;;9.60;;
5630;SDS011;2837;50.990;7.124;2023-07-31T11:06:59;149.03;;;9.93;;
5630;SDS011;2837;50.990;7.124;2023-07-31T11:09:30;150.80;;;8.70;;
5630;SDS011;2837;50.990;7.124;2023-07-31T11:11:59;148.40;;;8.93;;
5630;SDS011;2837;50.990;7.124;2023-07-31T11:14:25;146.67;;;8.77;;
5630;SDS011;2837;50.990;7.124;2023-07-31T11:16:51;147.93;;;9.20;;
5630;SDS011;2837;50.990;7.124;2023-07-31T11:19:24;148.03;;;9.40;;
5630;SDS011;2837;50.990;7.124;2023-07-31T11:21:50;149.20;;;9.23;;
5630;SDS011;2837;50.990;7.124;2023-07-31T11:24:17;147.87;;;8.73;;
5630;SDS011;2837;50.990;7.124;2023-07-31T11:26:50;146.90;;;8.80;;
5630;SDS011;2837;50.990;7.124;2023-07-31T11:29:19;147.33;;;8.53;;
5630;SDS011;2837;50.990;7.124;2023-07-31T11:31:45;147.13;;;9.27;;
5630;SDS011;2837;50.990;7.124;2023-07-31T11:34:12;147.17;;;9.03;;
5630;SDS011;2837;50.990;7.124;2023-07-31T11:36:38;148.00;;;8.67;;
5630;SDS011;2837;50.990;7.124;2023-07-31T11:39:04;149.37;;;8.90;;
5630;SDS011;2837;50.990;7.124;2023-07-31T11:41:31;150.37;;;9.67;;
5630;SDS011;2837;50.990;7.124;2023-07-31T11:44:00;146.77;;;8.10;;
5630;SDS011;2837;50.990;7.124;2023-07-31T11:46:27;146.67;;;8.43;;
5630;SDS011;2837;50.990;7.124;2023-07-31T11:48:58;147.07;;;8.10;;
5630;SDS011;2837;50.990;7.124;2023-07-31T11:51:24;146.87;;;8.70;;
5630;SDS011;2837;50.990;7.124;2023-07-31T11:53:51;147.07;;;8.47;;
5630;SDS011;2837;50.990;7.124;2023-07-31T11:56:20;145.80;;;8.10;;
5630;SDS011;2837;50.990;7.124;2023-07-31T11:58:53;144.93;;;7.40;;
5630;SDS011;2837;50.990;7.124;2023-07-31T12:01:22;145.90;;;8.20;;
5630;SDS011;2837;50.990;7.124;2023-07-31T12:03:48;146.87;;;7.80;;
5630;SDS011;2837;50.990;7.124;2023-07-31T12:06:15;146.07;;;8.30;;
5630;SDS011;2837;50.990;7.124;2023-07-31T12:08:41;147.47;;;8.77;;
5630;SDS011;2837;50.990;7.124;2023-07-31T12:11:07;144.43;;;7.23;;
5630;SDS011;2837;50.990;7.124;2023-07-31T12:13:34;144.83;;;8.10;;
5630;SDS011;2837;50.990;7.124;2023-07-31T12:16:01;144.77;;;7.70;;
5630;SDS011;2837;50.990;7.124;2023-07-31T12:18:29;146.07;;;8.17;;
5630;SDS011;2837;50.990;7.124;2023-07-31T12:21:02;145.20;;;7.93;;
5630;SDS011;2837;50.990;7.124;2023-07-31T12:23:31;146.07;;;7.67;;
5630;SDS011;2837;50.990;7.124;2023-07-31T12:29:05;145.30;;;7.93;;
5630;SDS011;2837;50.990;7.124;2023-07-31T12:31:23;145.07;;;7.57;;
5630;SDS011;2837;50.990;7.124;2023-07-31T12:33:53;147.30;;;8.43;;
5630;SDS011;2837;50.990;7.124;2023-07-31T12:36:21;153.17;;;8.57;;
5630;SDS011;2837;50.990;7.124;2023-07-31T12:38:49;146.47;;;8.43;;
5630;SDS011;2837;50.990;7.124;2023-07-31T12:41:16;145.63;;;8.67;;
5630;SDS011;2837;50.990;7.124;2023-07-31T12:43:42;146.10;;;7.53;;
5630;SDS011;2837;50.990;7.124;2023-07-31T12:46:08;144.93;;;7.93;;
5630;SDS011;2837;50.990;7.124;2023-07-31T12:48:34;147.10;;;8.20;;
5630;SDS011;2837;50.990;7.124;2023-07-31T12:51:01;149.70;;;8.30;;
5630;SDS011;2837;50.990;7.124;2023-07-31T12:53:27;146.73;;;8.77;;
5630;SDS011;2837;50.990;7.124;2023-07-31T12:55:53;146.53;;;7.80;;
5630;SDS011;2837;50.990;7.124;2023-07-31T12:58:19;148.37;;;8.87;;
5630;SDS011;2837;50.990;7.124;2023-07-31T13:00:45;147.27;;;8.47;;
5630;SDS011;2837;50.990;7.124;2023-07-31T13:03:11;146.97;;;8.00;;
5630;SDS011;2837;50.990;7.124;2023-07-31T13:05:37;146.97;;;8.60;;
5630;SDS011;2837;50.990;7.124;2023-07-31T13:08:03;147.17;;;8.90;;
5630;SDS011;2837;50.990;7.124;2023-07-31T13:10:29;147.13;;;8.77;;
5630;SDS011;2837;50.990;7.124;2023-07-31T13:12:55;149.00;;;8.50;;
5630;SDS011;2837;50.990;7.124;2023-07-31T13:15:21;147.30;;;8.40;;
5630;SDS011;2837;50.990;7.124;2023-07-31T13:17:47;147.10;;;8.47;;
5630;SDS011;2837;50.990;7.124;2023-07-31T13:20:13;147.00;;;8.63;;
5630;SDS011;2837;50.990;7.124;2023-07-31T13:22:39;145.87;;;7.83;;
5630;SDS011;2837;50.990;7.124;2023-07-31T13:25:05;147.17;;;9.10;;
5630;SDS011;2837;50.990;7.124;2023-07-31T13:27:31;150.23;;;7.80;;
5630;SDS011;2837;50.990;7.124;2023-07-31T13:29:57;146.10;;;8.63;;
5630;SDS011;2837;50.990;7.124;2023-07-31T13:32:23;146.50;;;8.50;;
5630;SDS011;2837;50.990;7.124;2023-07-31T13:34:49;145.00;;;8.30;;
5630;SDS011;2837;50.990;7.124;2023-07-31T13:37:15;146.23;;;8.60;;
5630;SDS011;2837;50.990;7.124;2023-07-31T13:39:42;146.93;;;8.43;;
5630;SDS011;2837;50.990;7.124;2023-07-31T13:42:08;146.57;;;9.03;;
5630;SDS011;2837;50.990;7.124;2023-07-31T13:44:36;145.77;;;8.90;;
5630;SDS011;2837;50.990;7.124;2023-07-31T13:47:02;146.87;;;8.90;;
5630;SDS011;2837;50.990;7.124;2023-07-31T13:49:28;148.70;;;8.17;;
5630;SDS011;2837;50.990;7.124;2023-07-31T13:51:55;145.97;;;9.00;;
5630;SDS011;2837;50.990;7.124;2023-07-31T13:54:22;145.97;;;8.53;;
5630;SDS011;2837;50.990;7.124;2023-07-31T13:56:48;146.30;;;8.00;;
5630;SDS011;2837;50.990;7.124;2023-07-31T13:59:14;145.70;;;8.27;;
5630;SDS011;2837;50.990;7.124;2023-07-31T14:01:41;145.27;;;8.20;;
5630;SDS011;2837;50.990;7.124;2023-07-31T14:04:08;145.47;;;8.07;;
5630;SDS011;2837;50.990;7.124;2023-07-31T14:06:34;145.87;;;8.50;;
5630;SDS011;2837;50.990;7.124;2023-07-31T14:08:59;145.33;;;7.60;;
5630;SDS011;2837;50.990;7.124;2023-07-31T14:11:26;144.57;;;8.17;;
5630;SDS011;2837;50.990;7.124;2023-07-31T14:13:51;146.47;;;8.90;;
5630;SDS011;2837;50.990;7.124;2023-07-31T14:16:17;145.30;;;7.97;;
5630;SDS011;2837;50.990;7.124;2023-07-31T14:18:43;143.97;;;7.40;;
5630;SDS011;2837;50.990;7.124;2023-07-31T14:21:10;143.93;;;7.40;;
5630;SDS011;2837;50.990;7.124;2023-07-31T14:23:36;147.10;;;7.97;;
5630;SDS011;2837;50.990;7.124;2023-07-31T14:26:02;144.60;;;7.30;;
5630;SDS011;2837;50.990;7.124;2023-07-31T14:28:28;145.07;;;7.80;;
5630;SDS011;2837;50.990;7.124;2023-07-31T14:30:54;144.83;;;8.37;;
5630;SDS011;2837;50.990;7.124;2023-07-31T14:33:20;144.13;;;7.80;;
5630;SDS011;2837;50.990;7.124;2023-07-31T14:35:46;144.27;;;8.37;;
5630;SDS011;2837;50.990;7.124;2023-07-31T14:38:12;146.27;;;8.70;;
5630;SDS011;2837;50.990;7.124;2023-07-31T14:40:38;145.47;;;8.00;;
5630;SDS011;2837;50.990;7.124;2023-07-31T14:43:04;145.10;;;7.93;;
5630;SDS011;2837;50.990;7.124;2023-07-31T14:45:30;144.10;;;7.53;;
5630;SDS011;2837;50.990;7.124;2023-07-31T14:47:56;143.93;;;6.80;;
5630;SDS011;2837;50.990;7.124;2023-07-31T14:50:22;145.77;;;8.20;;
5630;SDS011;2837;50.990;7.124;2023-07-31T14:52:49;146.67;;;8.00;;
5630;SDS011;2837;50.990;7.124;2023-07-31T14:55:15;144.87;;;8.23;;
5630;SDS011;2837;50.990;7.124;2023-07-31T14:57:41;146.07;;;8.80;;
5630;SDS011;2837;50.990;7.124;2023-07-31T15:00:07;144.20;;;7.60;;
5630;SDS011;2837;50.990;7.124;2023-07-31T15:02:36;145.10;;;8.00;;
5630;SDS011;2837;50.990;7.124;2023-07-31T15:05:02;145.67;;;7.83;;
5630;SDS011;2837;50.990;7.124;2023-07-31T15:07:28;143.27;;;6.43;;
5630;SDS011;2837;50.990;7.124;2023-07-31T15:09:54;143.97;;;7.80;;
5630;SDS011;2837;50.990;7.124;2023-07-31T15:12:20;144.53;;;8.27;;
5630;SDS011;2837;50.990;7.124;2023-07-31T15:14:48;145.17;;;8.57;;
5630;SDS011;2837;50.990;7.124;2023-07-31T15:17:14;145.20;;;8.27;;
5630;SDS011;2837;50.990;7.124;2023-07-31T15:19:40;145.27;;;7.73;;
5630;SDS011;2837;50.990;7.124;2023-07-31T15:22:06;148.97;;;8.17;;
5630;SDS011;2837;50.990;7.124;2023-07-31T15:24:32;145.97;;;8.10;;
5630;SDS011;2837;50.990;7.124;2023-07-31T15:26:58;145.27;;;8.20;;
5630;SDS011;2837;50.990;7.124;2023-07-31T15:29:24;145.10;;;8.37;;
5630;SDS011;2837;50.990;7.124;2023-07-31T15:31:50;146.17;;;7.67;;
5630;SDS011;2837;50.990;7.124;2023-07-31T15:34:16;147.57;;;8.80;;
5630;SDS011;2837;50.990;7.124;2023-07-31T15:36:42;144.50;;;7.60;;
5630;SDS011;2837;50.990;7.124;2023-07-31T15:39:08;146.73;;;8.37;;
5630;SDS011;2837;50.990;7.124;2023-07-31T15:41:37;145.30;;;8.03;;
5630;SDS011;2837;50.990;7.124;2023-07-31T15:44:03;146.20;;;7.90;;
5630;SDS011;2837;50.990;7.124;2023-07-31T15:46:29;145.70;;;8.67;;
5630;SDS011;2837;50.990;7.124;2023-07-31T15:48:55;146.33;;;8.47;;
5630;SDS011;2837;50.990;7.124;2023-07-31T15:51:22;144.60;;;7.83;;
5630;SDS011;2837;50.990;7.124;2023-07-31T15:53:48;145.97;;;8.07;;
5630;SDS011;2837;50.990;7.124;2023-07-31T15:56:14;148.20;;;9.17;;
5630;SDS011;2837;50.990;7.124;2023-07-31T15:58:39;145.10;;;8.43;;
5630;SDS011;2837;50.990;7.124;2023-07-31T16:01:05;146.90;;;9.10;;
5630;SDS011;2837;50.990;7.124;2023-07-31T16:03:31;145.90;;;8.80;;
5630;SDS011;2837;50.990;7.124;2023-07-31T16:05:57;147.07;;;9.30;;
5630;SDS011;2837;50.990;7.124;2023-07-31T16:08:23;146.27;;;8.17;;
5630;SDS011;2837;50.990;7.124;2023-07-31T16:10:49;148.40;;;9.33;;
5630;SDS011;2837;50.990;7.124;2023-07-31T16:13:15;145.47;;;8.73;;
5630;SDS011;2837;50.990;7.124;2023-07-31T16:15:42;145.77;;;8.83;;
5630;SDS011;2837;50.990;7.124;2023-07-31T16:18:08;146.40;;;9.23;;
5630;SDS011;2837;50.990;7.124;2023-07-31T16:20:34;146.47;;;8.40;;
5630;SDS011;2837;50.990;7.124;2023-07-31T16:23:00;147.07;;;9.27;;
5630;SDS011;2837;50.990;7.124;2023-07-31T16:25:26;146.47;;;8.87;;
5630;SDS011;2837;50.990;7.124;2023-07-31T16:27:52;147.77;;;8.47;;
5630;SDS011;2837;50.990;7.124;2023-07-31T16:30:17;147.70;;;8.77;;
5630;SDS011;2837;50.990;7.124;2023-07-31T16:32:43;146.97;;;8.83;;
5630;SDS011;2837;50.990;7.124;2023-07-31T16:35:11;147.00;;;8.13;;
5630;SDS011;2837;50.990;7.124;2023-07-31T16:37:37;147.97;;;9.23;;
5630;SDS011;2837;50.990;7.124;2023-07-31T16:40:05;148.70;;;8.87;;
5630;SDS011;2837;50.990;7.124;2023-07-31T16:42:31;147.07;;;8.57;;
5630;SDS011;2837;50.990;7.124;2023-07-31T16:44:57;147.07;;;7.93;;
5630;SDS011;2837;50.990;7.124;2023-07-31T16:47:23;146.77;;;8.97;;
5630;SDS011;2837;50.990;7.124;2023-07-31T16:49:49;146.67;;;8.77;;
5630;SDS011;2837;50.990;7.124;2023-07-31T16:52:15;146.60;;;8.43;;
5630;SDS011;2837;50.990;7.124;2023-07-31T16:54:40;147.37;;;8.83;;
5630;SDS011;2837;50.990;7.124;2023-07-31T16:57:06;146.50;;;9.00;;
5630;SDS011;2837;50.990;7.124;2023-07-31T16:59:32;147.43;;;8.80;;
5630;SDS011;2837;50.990;7.124;2023-07-31T17:01:58;153.17;;;9.20;;
5630;SDS011;2837;50.990;7.124;2023-07-31T17:04:24;148.27;;;9.43;;
5630;SDS011;2837;50.990;7.124;2023-07-31T17:06:50;146.67;;;8.90;;
5630;SDS011;2837;50.990;7.124;2023-07-31T17:09:16;148.27;;;9.77;;
5630;SDS011;2837;50.990;7.124;2023-07-31T17:11:43;147.97;;;9.00;;
5630;SDS011;2837;50.990;7.124;2023-07-31T17:14:09;147.63;;;9.77;;
5630;SDS011;2837;50.990;7.124;2023-07-31T17:16:35;147.47;;;8.20;;
5630;SDS011;2837;50.990;7.124;2023-07-31T17:19:01;150.10;;;9.43;;
5630;SDS011;2837;50.990;7.124;2023-07-31T17:21:27;149.30;;;9.33;;
5630;SDS011;2837;50.990;7.124;2023-07-31T17:23:53;147.93;;;9.00;;
5630;SDS011;2837;50.990;7.124;2023-07-31T17:26:19;149.13;;;10.47;;
5630;SDS011;2837;50.990;7.124;2023-07-31T17:28:45;148.67;;;9.47;;
5630;SDS011;2837;50.990;7.124;2023-07-31T17:31:11;148.63;;;10.23;;
5630;SDS011;2837;50.990;7.124;2023-07-31T17:33:40;151.67;;;10.50;;
5630;SDS011;2837;50.990;7.124;2023-07-31T17:36:06;149.00;;;10.13;;
5630;SDS011;2837;50.990;7.124;2023-07-31T17:38:32;150.17;;;9.07;;
5630;SDS011;2837;50.990;7.124;2023-07-31T17:40:58;149.47;;;10.47;;
5630;SDS011;2837;50.990;7.124;2023-07-31T17:43:24;150.53;;;10.40;;
5630;SDS011;2837;50.990;7.124;2023-07-31T17:45:50;149.23;;;9.40;;
5630;SDS011;2837;50.990;7.124;2023-07-31T17:48:16;149.90;;;9.37;;
5630;SDS011;2837;50.990;7.124;2023-07-31T17:50:43;151.57;;;9.53;;
5630;SDS011;2837;50.990;7.124;2023-07-31T17:53:14;156.67;;;10.37;;
5630;SDS011;2837;50.990;7.124;2023-07-31T17:55:40;149.43;;;10.20;;
5630;SDS011;2837;50.990;7.124;2023-07-31T17:58:06;148.27;;;9.20;;
5630;SDS011;2837;50.990;7.124;2023-07-31T18:00:32;149.07;;;9.33;;
5630;SDS011;2837;50.990;7.124;2023-07-31T18:02:58;150.07;;;10.53;;
5630;SDS011;2837;50.990;7.124;2023-07-31T18:05:24;150.40;;;9.60;;
5630;SDS011;2837;50.990;7.124;2023-07-31T18:07:49;149.37;;;9.90;;
5630;SDS011;2837;50.990;7.124;2023-07-31T18:10:15;147.60;;;9.60;;
5630;SDS011;2837;50.990;7.124;2023-07-31T18:12:41;148.93;;;10.00;;
5630;SDS011;2837;50.990;7.124;2023-07-31T18:15:07;149.67;;;9.90;;
5630;SDS011;2837;50.990;7.124;2023-07-31T18:17:33;150.07;;;10.27;;
5630;SDS011;2837;50.990;7.124;2023-07-31T18:19:59;150.70;;;10.13;;
5630;SDS011;2837;50.990;7.124;2023-07-31T18:22:25;152.90;;;9.67;;
5630;SDS011;2837;50.990;7.124;2023-07-31T18:24:51;151.60;;;10.73;;
5630;SDS011;2837;50.990;7.124;2023-07-31T18:27:17;150.17;;;10.07;;
5630;SDS011;2837;50.990;7.124;2023-07-31T18:29:46;149.70;;;10.03;;
5630;SDS011;2837;50.990;7.124;2023-07-31T18:32:12;150.37;;;10.30;;
5630;SDS011;2837;50.990;7.124;2023-07-31T18:34:38;149.10;;;9.93;;
5630;SDS011;2837;50.990;7.124;2023-07-31T18:37:04;148.73;;;10.00;;
5630;SDS011;2837;50.990;7.124;2023-07-31T18:39:31;148.27;;;9.30;;
5630;SDS011;2837;50.990;7.124;2023-07-31T18:41:56;151.73;;;10.13;;
5630;SDS011;2837;50.990;7.124;2023-07-31T18:44:22;149.53;;;9.80;;
5630;SDS011;2837;50.990;7.124;2023-07-31T18:46:48;148.80;;;9.30;;
5630;SDS011;2837;50.990;7.124;2023-07-31T18:49:14;148.73;;;9.40;;
5630;SDS011;2837;50.990;7.124;2023-07-31T18:51:40;148.83;;;8.80;;
5630;SDS011;2837;50.990;7.124;2023-07-31T18:54:06;148.67;;;9.87;;
5630;SDS011;2837;50.990;7.124;2023-07-31T18:56:32;147.30;;;8.70;;
5630;SDS011;2837;50.990;7.124;2023-07-31T18:58:59;147.97;;;8.97;;
5630;SDS011;2837;50.990;7.124;2023-07-31T19:01:26;148.63;;;9.13;;
5630;SDS011;2837;50.990;7.124;2023-07-31T19:03:51;148.73;;;9.33;;
5630;SDS011;2837;50.990;7.124;2023-07-31T19:06:17;151.87;;;9.23;;
5630;SDS011;2837;50.990;7.124;2023-07-31T19:08:43;149.13;;;10.00;;
5630;SDS011;2837;50.990;7.124;2023-07-31T19:11:09;149.07;;;9.30;;
5630;SDS011;2837;50.990;7.124;2023-07-31T19:13:38;149.90;;;9.10;;
5630;SDS011;2837;50.990;7.124;2023-07-31T19:16:04;147.87;;;9.17;;
5630;SDS011;2837;50.990;7.124;2023-07-31T19:18:30;150.20;;;9.40;;
5630;SDS011;2837;50.990;7.124;2023-07-31T19:20:56;147.00;;;9.03;;
5630;SDS011;2837;50.990;7.124;2023-07-31T19:23:22;148.07;;;8.63;;
5630;SDS011;2837;50.990;7.124;2023-07-31T19:25:48;149.67;;;8.90;;
5630;SDS011;2837;50.990;7.124;2023-07-31T19:28:14;148.00;;;8.50;;
5630;SDS011;2837;50.990;7.124;2023-07-31T19:30:40;147.80;;;8.63;;
5630;SDS011;2837;50.990;7.124;2023-07-31T19:33:06;149.20;;;9.20;;
5630;SDS011;2837;50.990;7.124;2023-07-31T19:35:32;148.90;;;8.87;;
5630;SDS011;2837;50.990;7.124;2023-07-31T19:37:58;147.50;;;8.83;;
5630;SDS011;2837;50.990;7.124;2023-07-31T19:40:24;147.40;;;8.37;;
5630;SDS011;2837;50.990;7.124;2023-07-31T19:42:50;148.27;;;8.67;;
5630;SDS011;2837;50.990;7.124;2023-07-31T19:45:24;147.20;;;9.00;;
5630;SDS011;2837;50.990;7.124;2023-07-31T19:47:51;146.37;;;8.83;;
5630;SDS011;2837;50.990;7.124;2023-07-31T19:50:17;147.47;;;9.27;;